sensor_id;sensor_type;location;lat;lon;timestamp;P1;durP1;ratioP1;P2;durP2;ratioP2
42092;SDS011;28974;50.316;18.960;2023-08-17T00:11:45;18.90;;;10.45;;
42092;SDS011;28974;50.316;18.960;2023-08-17T00:23:45;15.80;;;9.95;;
42092;SDS011;28974;50.316;18.960;2023-08-17T00:35:46;18.98;;;10.65;;
42092;SDS011;28974;50.316;18.960;2023-08-17T00:47:46;16.70;;;10.43;;
42092;SDS011;28974;50.316;18.960;2023-08-17T00:59:46;19.88;;;11.18;;
42092;SDS011;28974;50.316;18.960;2023-08-17T01:11:55;27.05;;;12.63;;
42092;SDS011;28974;50.316;18.960;2023-08-17T01:24:02;16.88;;;11.45;;
42092;SDS011;28974;50.316;18.960;2023-08-17T01:36:05;22.27;;;10.70;;
42092;SDS011;28974;50.316;18.960;2023-08-17T01:48:07;22.17;;;11.80;;
42092;SDS011;28974;50.316;18.960;2023-08-17T02:00:08;17.80;;;9.98;;
42092;SDS011;28974;50.316;18.960;2023-08-17T02:12:14;36.50;;;11.83;;
42092;SDS011;28974;50.316;18.960;2023-08-17T02:24:14;18.83;;;10.15;;
42092;SDS011;28974;50.316;18.960;2023-08-17T02:36:14;18.08;;;10.43;;
42092;SDS011;28974;50.316;18.960;2023-08-17T02:48:15;19.70;;;11.20;;
42092;SDS011;28974;50.316;18.960;2023-08-17T03:00:15;24.65;;;12.40;;
42092;SDS011;28974;50.316;18.960;2023-08-17T03:12:15;24.35;;;12.77;;
42092;SDS011;28974;50.316;18.960;2023-08-17T03:24:20;19.58;;;12.98;;
42092;SDS011;28974;50.316;18.960;2023-08-17T03:36:21;27.50;;;14.87;;
42092;SDS011;28974;50.316;18.960;2023-08-17T03:48:21;23.95;;;15.85;;
42092;SDS011;28974;50.316;18.960;2023-08-17T04:00:22;32.53;;;19.02;;
42092;SDS011;28974;50.316;18.960;2023-08-17T04:12:29;34.47;;;19.60;;
42092;SDS011;28974;50.316;18.960;2023-08-17T04:24:29;25.02;;;16.60;;
42092;SDS011;28974;50.316;18.960;2023-08-17T04:36:30;35.23;;;17.80;;
42092;SDS011;28974;50.316;18.960;2023-08-17T04:48:31;28.13;;;15.98;;
42092;SDS011;28974;50.316;18.960;2023-08-17T05:00:31;28.20;;;15.75;;
42092;SDS011;28974;50.316;18.960;2023-08-17T05:12:32;31.17;;;16.27;;
42092;SDS011;28974;50.316;18.960;2023-08-17T05:24:32;28.95;;;13.77;;
42092;SDS011;28974;50.316;18.960;2023-08-17T05:36:33;26.15;;;14.68;;
42092;SDS011;28974;50.316;18.960;2023-08-17T05:48:39;30.60;;;15.38;;
42092;SDS011;28974;50.316;18.960;2023-08-17T06:00:41;47.00;;;17.67;;
42092;SDS011;28974;50.316;18.960;2023-08-17T06:12:41;38.28;;;20.02;;
42092;SDS011;28974;50.316;18.960;2023-08-17T06:24:41;39.03;;;19.63;;
42092;SDS011;28974;50.316;18.960;2023-08-17T06:36:42;34.40;;;20.83;;
42092;SDS011;28974;50.316;18.960;2023-08-17T06:48:42;32.83;;;18.38;;
42092;SDS011;28974;50.316;18.960;2023-08-17T07:00:43;28.88;;;18.35;;
42092;SDS011;28974;50.316;18.960;2023-08-17T07:12:44;33.83;;;20.25;;
42092;SDS011;28974;50.316;18.960;2023-08-17T07:24:44;34.50;;;21.55;;
42092;SDS011;28974;50.316;18.960;2023-08-17T07:36:44;36.47;;;19.10;;
42092;SDS011;28974;50.316;18.960;2023-08-17T07:48:45;40.60;;;25.50;;
42092;SDS011;28974;50.316;18.960;2023-08-17T08:00:45;43.85;;;21.20;;
42092;SDS011;28974;50.316;18.960;2023-08-17T08:12:50;45.13;;;23.05;;
42092;SDS011;28974;50.316;18.960;2023-08-17T08:24:50;42.97;;;22.50;;
42092;SDS011;28974;50.316;18.960;2023-08-17T08:36:51;35.83;;;17.73;;
42092;SDS011;28974;50.316;18.960;2023-08-17T08:48:51;37.38;;;20.30;;
42092;SDS011;28974;50.316;18.960;2023-08-17T09:00:52;38.55;;;18.23;;
42092;SDS011;28974;50.316;18.960;2023-08-17T09:12:53;43.85;;;16.67;;
42092;SDS011;28974;50.316;18.960;2023-08-17T09:24:54;29.60;;;13.25;;
42092;SDS011;28974;50.316;18.960;2023-08-17T09:36:54;30.08;;;13.68;;
42092;SDS011;28974;50.316;18.960;2023-08-17T09:48:54;22.20;;;13.40;;
42092;SDS011;28974;50.316;18.960;2023-08-17T10:00:56;28.58;;;14.77;;
42092;SDS011;28974;50.316;18.960;2023-08-17T10:13:03;20.80;;;11.63;;
42092;SDS011;28974;50.316;18.960;2023-08-17T10:25:06;16.30;;;10.32;;
42092;SDS011;28974;50.316;18.960;2023-08-17T10:37:08;41.72;;;13.90;;
42092;SDS011;28974;50.316;18.960;2023-08-17T10:49:23;22.75;;;12.20;;
42092;SDS011;28974;50.316;18.960;2023-08-17T11:01:31;22.40;;;10.50;;
42092;SDS011;28974;50.316;18.960;2023-08-17T11:13:35;16.30;;;8.70;;
42092;SDS011;28974;50.316;18.960;2023-08-17T11:25:36;22.07;;;9.17;;
42092;SDS011;28974;50.316;18.960;2023-08-17T11:37:36;16.97;;;9.03;;
42092;SDS011;28974;50.316;18.960;2023-08-17T11:49:36;68.70;;;9.32;;
42092;SDS011;28974;50.316;18.960;2023-08-17T12:01:37;18.63;;;7.55;;
42092;SDS011;28974;50.316;18.960;2023-08-17T12:13:37;53.47;;;11.43;;
42092;SDS011;28974;50.316;18.960;2023-08-17T12:25:38;19.25;;;10.40;;
42092;SDS011;28974;50.316;18.960;2023-08-17T12:37:38;22.42;;;10.82;;
42092;SDS011;28974;50.316;18.960;2023-08-17T12:49:38;27.27;;;11.85;;
42092;SDS011;28974;50.316;18.960;2023-08-17T13:01:38;26.73;;;17.45;;
42092;SDS011;28974;50.316;18.960;2023-08-17T13:13:39;13.98;;;9.65;;
42092;SDS011;28974;50.316;18.960;2023-08-17T13:25:39;18.10;;;7.72;;
42092;SDS011;28974;50.316;18.960;2023-08-17T13:37:40;16.25;;;8.25;;
42092;SDS011;28974;50.316;18.960;2023-08-17T13:49:40;15.63;;;7.80;;
42092;SDS011;28974;50.316;18.960;2023-08-17T14:01:40;17.48;;;7.38;;
42092;SDS011;28974;50.316;18.960;2023-08-17T14:13:41;19.70;;;8.48;;
42092;SDS011;28974;50.316;18.960;2023-08-17T14:25:41;17.63;;;9.85;;
42092;SDS011;28974;50.316;18.960;2023-08-17T14:37:41;17.20;;;11.55;;
42092;SDS011;28974;50.316;18.960;2023-08-17T14:49:41;19.83;;;12.68;;
42092;SDS011;28974;50.316;18.960;2023-08-17T15:01:42;21.45;;;11.77;;
42092;SDS011;28974;50.316;18.960;2023-08-17T15:13:42;19.17;;;10.60;;
42092;SDS011;28974;50.316;18.960;2023-08-17T15:25:43;25.25;;;10.60;;
42092;SDS011;28974;50.316;18.960;2023-08-17T15:37:43;14.57;;;8.98;;
42092;SDS011;28974;50.316;18.960;2023-08-17T15:49:44;11.35;;;8.48;;
42092;SDS011;28974;50.316;18.960;2023-08-17T16:01:44;16.95;;;8.25;;
42092;SDS011;28974;50.316;18.960;2023-08-17T16:13:45;20.02;;;8.27;;
42092;SDS011;28974;50.316;18.960;2023-08-17T16:25:45;25.02;;;8.85;;
42092;SDS011;28974;50.316;18.960;2023-08-17T16:37:45;12.85;;;8.23;;
42092;SDS011;28974;50.316;18.960;2023-08-17T16:49:46;14.02;;;8.23;;
42092;SDS011;28974;50.316;18.960;2023-08-17T17:01:46;11.90;;;7.78;;
42092;SDS011;28974;50.316;18.960;2023-08-17T17:13:47;11.93;;;7.57;;
42092;SDS011;28974;50.316;18.960;2023-08-17T17:25:47;12.88;;;6.88;;
42092;SDS011;28974;50.316;18.960;2023-08-17T17:37:48;14.57;;;7.20;;
42092;SDS011;28974;50.316;18.960;2023-08-17T17:49:48;16.05;;;8.93;;
42092;SDS011;28974;50.316;18.960;2023-08-17T18:01:48;14.00;;;8.10;;
42092;SDS011;28974;50.316;18.960;2023-08-17T18:13:48;16.73;;;8.35;;
42092;SDS011;28974;50.316;18.960;2023-08-17T18:25:50;23.23;;;8.88;;
42092;SDS011;28974;50.316;18.960;2023-08-17T18:37:50;17.00;;;9.15;;
42092;SDS011;28974;50.316;18.960;2023-08-17T18:49:50;15.77;;;9.30;;
42092;SDS011;28974;50.316;18.960;2023-08-17T19:01:51;15.27;;;9.52;;
42092;SDS011;28974;50.316;18.960;2023-08-17T19:13:51;21.85;;;10.52;;
42092;SDS011;28974;50.316;18.960;2023-08-17T19:25:51;20.08;;;12.75;;
42092;SDS011;28974;50.316;18.960;2023-08-17T19:37:52;22.15;;;12.75;;
42092;SDS011;28974;50.316;18.960;2023-08-17T19:49:52;29.98;;;14.35;;
42092;SDS011;28974;50.316;18.960;2023-08-17T20:01:52;24.60;;;13.45;;
42092;SDS011;28974;50.316;18.960;2023-08-17T20:13:52;24.33;;;11.93;;
42092;SDS011;28974;50.316;18.960;2023-08-17T20:25:53;18.23;;;7.32;;
42092;SDS011;28974;50.316;18.960;2023-08-17T20:37:53;39.75;;;12.55;;
42092;SDS011;28974;50.316;18.960;2023-08-17T20:49:53;12.70;;;7.78;;
42092;SDS011;28974;50.316;18.960;2023-08-17T21:01:58;24.88;;;9.55;;
42092;SDS011;28974;50.316;18.960;2023-08-17T21:13:58;10.90;;;5.20;;
42092;SDS011;28974;50.316;18.960;2023-08-17T21:25:58;18.60;;;7.35;;
42092;SDS011;28974;50.316;18.960;2023-08-17T21:37:59;14.73;;;8.30;;
42092;SDS011;28974;50.316;18.960;2023-08-17T21:49:59;18.92;;;8.32;;
42092;SDS011;28974;50.316;18.960;2023-08-17T22:01:59;11.70;;;6.93;;
42092;SDS011;28974;50.316;18.960;2023-08-17T22:14:00;15.02;;;7.32;;
42092;SDS011;28974;50.316;18.960;2023-08-17T22:26:00;15.25;;;7.90;;
42092;SDS011;28974;50.316;18.960;2023-08-17T22:38:00;12.20;;;6.72;;
42092;SDS011;28974;50.316;18.960;2023-08-17T22:50:01;9.50;;;7.40;;
42092;SDS011;28974;50.316;18.960;2023-08-17T23:02:01;15.82;;;7.45;;
42092;SDS011;28974;50.316;18.960;2023-08-17T23:14:02;12.30;;;8.15;;
42092;SDS011;28974;50.316;18.960;2023-08-17T23:26:03;12.70;;;8.73;;
42092;SDS011;28974;50.316;18.960;2023-08-17T23:38:03;15.77;;;9.65;;
42092;SDS011;28974;50.316;18.960;2023-08-17T23:50:03;20.15;;;13.27;;
